sensor_id;sensor_type;location;lat;lon;timestamp;P1;durP1;ratioP1;P2;durP2;ratioP2
36379;SDS011;22411;53.016;18.632;2024-03-07T00:01:55;25.23;;;12.50;;
36379;SDS011;22411;53.016;18.632;2024-03-07T00:04:20;20.10;;;11.67;;
36379;SDS011;22411;53.016;18.632;2024-03-07T00:06:46;22.37;;;12.43;;
36379;SDS011;22411;53.016;18.632;2024-03-07T00:09:13;26.63;;;13.00;;
36379;SDS011;22411;53.016;18.632;2024-03-07T00:11:40;19.20;;;11.27;;
36379;SDS011;22411;53.016;18.632;2024-03-07T00:14:06;26.17;;;13.43;;
36379;SDS011;22411;53.016;18.632;2024-03-07T00:16:32;22.83;;;12.63;;
36379;SDS011;22411;53.016;18.632;2024-03-07T00:18:59;23.83;;;12.83;;
36379;SDS011;22411;53.016;18.632;2024-03-07T00:21:26;23.30;;;11.80;;
36379;SDS011;22411;53.016;18.632;2024-03-07T00:23:51;21.63;;;11.60;;
36379;SDS011;22411;53.016;18.632;2024-03-07T00:26:19;24.83;;;13.20;;
36379;SDS011;22411;53.016;18.632;2024-03-07T00:28:45;24.33;;;12.10;;
36379;SDS011;22411;53.016;18.632;2024-03-07T00:31:11;20.07;;;11.10;;
36379;SDS011;22411;53.016;18.632;2024-03-07T00:33:36;23.77;;;12.57;;
36379;SDS011;22411;53.016;18.632;2024-03-07T00:36:02;26.30;;;12.73;;
36379;SDS011;22411;53.016;18.632;2024-03-07T00:38:28;22.10;;;11.37;;
36379;SDS011;22411;53.016;18.632;2024-03-07T00:40:54;27.43;;;13.73;;
36379;SDS011;22411;53.016;18.632;2024-03-07T00:43:19;20.73;;;11.93;;
36379;SDS011;22411;53.016;18.632;2024-03-07T00:45:45;23.67;;;12.33;;
36379;SDS011;22411;53.016;18.632;2024-03-07T00:48:15;21.40;;;12.70;;
36379;SDS011;22411;53.016;18.632;2024-03-07T00:50:42;28.60;;;13.37;;
36379;SDS011;22411;53.016;18.632;2024-03-07T00:53:10;24.03;;;12.30;;
36379;SDS011;22411;53.016;18.632;2024-03-07T00:55:36;22.77;;;12.70;;
36379;SDS011;22411;53.016;18.632;2024-03-07T00:58:03;27.17;;;12.10;;
36379;SDS011;22411;53.016;18.632;2024-03-07T01:00:30;23.53;;;12.57;;
36379;SDS011;22411;53.016;18.632;2024-03-07T01:02:55;21.40;;;11.70;;
36379;SDS011;22411;53.016;18.632;2024-03-07T01:05:22;20.90;;;12.57;;
36379;SDS011;22411;53.016;18.632;2024-03-07T01:07:48;23.67;;;13.43;;
36379;SDS011;22411;53.016;18.632;2024-03-07T01:10:14;22.80;;;12.17;;
36379;SDS011;22411;53.016;18.632;2024-03-07T01:12:40;21.67;;;10.83;;
36379;SDS011;22411;53.016;18.632;2024-03-07T01:15:08;19.07;;;11.40;;
36379;SDS011;22411;53.016;18.632;2024-03-07T01:17:35;22.73;;;12.00;;
36379;SDS011;22411;53.016;18.632;2024-03-07T01:20:01;24.57;;;12.57;;
36379;SDS011;22411;53.016;18.632;2024-03-07T01:22:27;20.87;;;12.63;;
36379;SDS011;22411;53.016;18.632;2024-03-07T01:24:53;20.90;;;11.73;;
36379;SDS011;22411;53.016;18.632;2024-03-07T01:27:20;21.30;;;12.10;;
36379;SDS011;22411;53.016;18.632;2024-03-07T01:29:45;19.73;;;10.63;;
36379;SDS011;22411;53.016;18.632;2024-03-07T01:32:11;24.87;;;12.00;;
36379;SDS011;22411;53.016;18.632;2024-03-07T01:34:37;20.20;;;11.83;;
36379;SDS011;22411;53.016;18.632;2024-03-07T01:37:02;21.27;;;11.93;;
36379;SDS011;22411;53.016;18.632;2024-03-07T01:39:28;22.23;;;10.97;;
36379;SDS011;22411;53.016;18.632;2024-03-07T01:41:54;22.40;;;11.17;;
36379;SDS011;22411;53.016;18.632;2024-03-07T01:44:20;20.20;;;11.13;;
36379;SDS011;22411;53.016;18.632;2024-03-07T01:46:45;18.97;;;10.30;;
36379;SDS011;22411;53.016;18.632;2024-03-07T01:49:11;23.07;;;10.83;;
36379;SDS011;22411;53.016;18.632;2024-03-07T01:51:37;22.50;;;11.67;;
36379;SDS011;22411;53.016;18.632;2024-03-07T01:54:05;20.23;;;10.97;;
36379;SDS011;22411;53.016;18.632;2024-03-07T01:56:33;20.60;;;11.37;;
36379;SDS011;22411;53.016;18.632;2024-03-07T01:59:01;26.73;;;11.37;;
36379;SDS011;22411;53.016;18.632;2024-03-07T02:01:30;18.93;;;12.07;;
36379;SDS011;22411;53.016;18.632;2024-03-07T02:03:57;20.07;;;11.37;;
36379;SDS011;22411;53.016;18.632;2024-03-07T02:06:23;24.00;;;12.30;;
36379;SDS011;22411;53.016;18.632;2024-03-07T02:08:49;20.20;;;11.67;;
36379;SDS011;22411;53.016;18.632;2024-03-07T02:11:15;20.30;;;11.10;;
36379;SDS011;22411;53.016;18.632;2024-03-07T02:13:41;19.50;;;11.83;;
36379;SDS011;22411;53.016;18.632;2024-03-07T02:16:06;22.03;;;11.63;;
36379;SDS011;22411;53.016;18.632;2024-03-07T02:18:33;19.57;;;10.67;;
36379;SDS011;22411;53.016;18.632;2024-03-07T02:21:00;21.70;;;11.20;;
36379;SDS011;22411;53.016;18.632;2024-03-07T02:23:26;21.23;;;12.87;;
36379;SDS011;22411;53.016;18.632;2024-03-07T02:25:53;23.10;;;10.43;;
36379;SDS011;22411;53.016;18.632;2024-03-07T02:28:19;24.77;;;13.33;;
36379;SDS011;22411;53.016;18.632;2024-03-07T02:30:44;24.27;;;12.27;;
36379;SDS011;22411;53.016;18.632;2024-03-07T02:33:11;18.57;;;10.43;;
36379;SDS011;22411;53.016;18.632;2024-03-07T02:35:37;22.90;;;11.63;;
36379;SDS011;22411;53.016;18.632;2024-03-07T02:38:03;22.03;;;11.90;;
36379;SDS011;22411;53.016;18.632;2024-03-07T02:40:33;23.17;;;12.60;;
36379;SDS011;22411;53.016;18.632;2024-03-07T02:43:00;19.37;;;11.37;;
36379;SDS011;22411;53.016;18.632;2024-03-07T02:45:26;20.17;;;10.90;;
36379;SDS011;22411;53.016;18.632;2024-03-07T02:47:52;25.20;;;12.77;;
36379;SDS011;22411;53.016;18.632;2024-03-07T02:50:19;22.50;;;12.33;;
36379;SDS011;22411;53.016;18.632;2024-03-07T02:52:45;17.50;;;10.63;;
36379;SDS011;22411;53.016;18.632;2024-03-07T02:55:11;21.13;;;11.23;;
36379;SDS011;22411;53.016;18.632;2024-03-07T02:57:37;21.43;;;12.03;;
36379;SDS011;22411;53.016;18.632;2024-03-07T03:00:03;22.97;;;11.67;;
36379;SDS011;22411;53.016;18.632;2024-03-07T03:02:39;22.37;;;12.43;;
36379;SDS011;22411;53.016;18.632;2024-03-07T03:05:05;22.10;;;11.53;;
36379;SDS011;22411;53.016;18.632;2024-03-07T03:07:35;18.80;;;11.63;;
36379;SDS011;22411;53.016;18.632;2024-03-07T03:10:01;20.53;;;10.80;;
36379;SDS011;22411;53.016;18.632;2024-03-07T03:12:31;18.77;;;11.10;;
36379;SDS011;22411;53.016;18.632;2024-03-07T03:14:56;22.87;;;11.27;;
36379;SDS011;22411;53.016;18.632;2024-03-07T03:17:22;22.00;;;11.30;;
36379;SDS011;22411;53.016;18.632;2024-03-07T03:19:48;24.33;;;11.87;;
36379;SDS011;22411;53.016;18.632;2024-03-07T03:22:15;23.17;;;12.47;;
36379;SDS011;22411;53.016;18.632;2024-03-07T03:24:41;30.93;;;14.13;;
36379;SDS011;22411;53.016;18.632;2024-03-07T03:27:06;25.60;;;13.70;;
36379;SDS011;22411;53.016;18.632;2024-03-07T03:29:33;28.73;;;15.17;;
36379;SDS011;22411;53.016;18.632;2024-03-07T03:31:59;36.63;;;15.90;;
36379;SDS011;22411;53.016;18.632;2024-03-07T03:34:25;30.07;;;15.23;;
36379;SDS011;22411;53.016;18.632;2024-03-07T03:36:52;34.20;;;16.20;;
36379;SDS011;22411;53.016;18.632;2024-03-07T03:39:17;37.43;;;17.80;;
36379;SDS011;22411;53.016;18.632;2024-03-07T03:41:46;31.97;;;17.47;;
36379;SDS011;22411;53.016;18.632;2024-03-07T03:44:11;38.53;;;21.90;;
36379;SDS011;22411;53.016;18.632;2024-03-07T03:46:37;32.53;;;17.20;;
36379;SDS011;22411;53.016;18.632;2024-03-07T03:49:03;30.47;;;16.70;;
36379;SDS011;22411;53.016;18.632;2024-03-07T03:51:31;35.63;;;17.70;;
36379;SDS011;22411;53.016;18.632;2024-03-07T03:53:57;30.93;;;15.77;;
36379;SDS011;22411;53.016;18.632;2024-03-07T03:56:23;35.00;;;17.17;;
36379;SDS011;22411;53.016;18.632;2024-03-07T03:58:50;33.07;;;16.83;;
36379;SDS011;22411;53.016;18.632;2024-03-07T04:01:15;29.13;;;16.63;;
36379;SDS011;22411;53.016;18.632;2024-03-07T04:03:41;33.73;;;17.87;;
36379;SDS011;22411;53.016;18.632;2024-03-07T04:06:07;29.10;;;16.03;;
36379;SDS011;22411;53.016;18.632;2024-03-07T04:08:33;31.20;;;17.03;;
36379;SDS011;22411;53.016;18.632;2024-03-07T04:11:02;30.87;;;16.17;;
36379;SDS011;22411;53.016;18.632;2024-03-07T04:13:29;33.23;;;15.83;;
36379;SDS011;22411;53.016;18.632;2024-03-07T04:15:56;32.03;;;17.53;;
36379;SDS011;22411;53.016;18.632;2024-03-07T04:18:21;37.73;;;18.30;;
36379;SDS011;22411;53.016;18.632;2024-03-07T04:20:48;35.20;;;18.73;;
36379;SDS011;22411;53.016;18.632;2024-03-07T04:23:13;31.07;;;17.20;;
36379;SDS011;22411;53.016;18.632;2024-03-07T04:25:39;36.57;;;17.47;;
36379;SDS011;22411;53.016;18.632;2024-03-07T04:28:05;32.83;;;16.27;;
36379;SDS011;22411;53.016;18.632;2024-03-07T04:30:30;30.47;;;15.93;;
36379;SDS011;22411;53.016;18.632;2024-03-07T04:32:56;31.77;;;16.60;;
36379;SDS011;22411;53.016;18.632;2024-03-07T04:35:23;29.77;;;15.50;;
36379;SDS011;22411;53.016;18.632;2024-03-07T04:37:49;31.50;;;16.23;;
36379;SDS011;22411;53.016;18.632;2024-03-07T04:40:16;29.20;;;15.50;;
36379;SDS011;22411;53.016;18.632;2024-03-07T04:42:45;28.20;;;14.67;;
36379;SDS011;22411;53.016;18.632;2024-03-07T04:47:39;28.83;;;14.73;;
36379;SDS011;22411;53.016;18.632;2024-03-07T04:50:07;26.80;;;13.90;;
36379;SDS011;22411;53.016;18.632;2024-03-07T04:52:39;28.47;;;13.73;;
36379;SDS011;22411;53.016;18.632;2024-03-07T04:55:06;32.07;;;13.53;;
36379;SDS011;22411;53.016;18.632;2024-03-07T04:57:38;28.83;;;13.57;;
36379;SDS011;22411;53.016;18.632;2024-03-07T05:00:09;27.17;;;14.20;;
36379;SDS011;22411;53.016;18.632;2024-03-07T05:02:40;24.97;;;13.70;;
36379;SDS011;22411;53.016;18.632;2024-03-07T05:05:07;27.37;;;14.33;;
36379;SDS011;22411;53.016;18.632;2024-03-07T05:07:33;28.70;;;13.53;;
36379;SDS011;22411;53.016;18.632;2024-03-07T05:09:59;24.53;;;13.50;;
36379;SDS011;22411;53.016;18.632;2024-03-07T05:12:25;21.47;;;12.90;;
36379;SDS011;22411;53.016;18.632;2024-03-07T05:14:51;24.17;;;13.93;;
36379;SDS011;22411;53.016;18.632;2024-03-07T05:17:17;27.30;;;13.57;;
36379;SDS011;22411;53.016;18.632;2024-03-07T05:19:45;26.33;;;13.23;;
36379;SDS011;22411;53.016;18.632;2024-03-07T05:22:11;28.73;;;15.63;;
36379;SDS011;22411;53.016;18.632;2024-03-07T05:24:44;29.13;;;15.43;;
36379;SDS011;22411;53.016;18.632;2024-03-07T05:27:10;29.60;;;14.40;;
36379;SDS011;22411;53.016;18.632;2024-03-07T05:29:38;32.27;;;15.20;;
36379;SDS011;22411;53.016;18.632;2024-03-07T05:32:20;29.43;;;14.60;;
36379;SDS011;22411;53.016;18.632;2024-03-07T05:34:47;31.40;;;14.57;;
36379;SDS011;22411;53.016;18.632;2024-03-07T05:37:13;29.23;;;15.20;;
36379;SDS011;22411;53.016;18.632;2024-03-07T05:39:39;25.07;;;14.07;;
36379;SDS011;22411;53.016;18.632;2024-03-07T05:42:04;31.90;;;16.10;;
36379;SDS011;22411;53.016;18.632;2024-03-07T05:44:35;31.27;;;17.27;;
36379;SDS011;22411;53.016;18.632;2024-03-07T05:47:01;22.67;;;12.83;;
36379;SDS011;22411;53.016;18.632;2024-03-07T05:49:27;31.33;;;14.50;;
36379;SDS011;22411;53.016;18.632;2024-03-07T05:51:52;24.80;;;13.37;;
36379;SDS011;22411;53.016;18.632;2024-03-07T05:54:18;26.07;;;14.53;;
36379;SDS011;22411;53.016;18.632;2024-03-07T05:56:44;29.40;;;12.53;;
36379;SDS011;22411;53.016;18.632;2024-03-07T05:59:09;30.10;;;16.40;;
36379;SDS011;22411;53.016;18.632;2024-03-07T06:01:35;32.33;;;14.13;;
36379;SDS011;22411;53.016;18.632;2024-03-07T06:04:02;24.00;;;14.33;;
36379;SDS011;22411;53.016;18.632;2024-03-07T06:06:32;26.70;;;14.30;;
36379;SDS011;22411;53.016;18.632;2024-03-07T06:09:00;31.50;;;14.30;;
36379;SDS011;22411;53.016;18.632;2024-03-07T06:11:37;26.07;;;14.03;;
36379;SDS011;22411;53.016;18.632;2024-03-07T06:14:06;33.43;;;13.97;;
36379;SDS011;22411;53.016;18.632;2024-03-07T06:16:36;29.37;;;14.67;;
36379;SDS011;22411;53.016;18.632;2024-03-07T06:21:30;25.40;;;12.83;;
36379;SDS011;22411;53.016;18.632;2024-03-07T06:23:59;24.70;;;12.70;;
36379;SDS011;22411;53.016;18.632;2024-03-07T06:26:25;26.07;;;13.43;;
36379;SDS011;22411;53.016;18.632;2024-03-07T06:29:11;24.60;;;13.17;;
36379;SDS011;22411;53.016;18.632;2024-03-07T06:31:37;28.37;;;12.90;;
36379;SDS011;22411;53.016;18.632;2024-03-07T06:34:03;23.73;;;12.30;;
36379;SDS011;22411;53.016;18.632;2024-03-07T06:36:29;22.63;;;12.50;;
36379;SDS011;22411;53.016;18.632;2024-03-07T06:38:55;20.73;;;12.57;;
36379;SDS011;22411;53.016;18.632;2024-03-07T06:41:21;22.70;;;12.33;;
36379;SDS011;22411;53.016;18.632;2024-03-07T06:43:47;22.53;;;12.70;;
36379;SDS011;22411;53.016;18.632;2024-03-07T06:46:15;22.37;;;12.37;;
36379;SDS011;22411;53.016;18.632;2024-03-07T06:48:42;26.63;;;13.40;;
36379;SDS011;22411;53.016;18.632;2024-03-07T06:51:10;25.07;;;13.17;;
36379;SDS011;22411;53.016;18.632;2024-03-07T06:53:36;24.27;;;11.87;;
36379;SDS011;22411;53.016;18.632;2024-03-07T06:56:02;19.80;;;11.47;;
36379;SDS011;22411;53.016;18.632;2024-03-07T06:58:28;20.93;;;11.90;;
36379;SDS011;22411;53.016;18.632;2024-03-07T07:00:54;22.70;;;12.13;;
36379;SDS011;22411;53.016;18.632;2024-03-07T07:03:20;24.43;;;12.57;;
36379;SDS011;22411;53.016;18.632;2024-03-07T07:05:47;18.33;;;11.57;;
36379;SDS011;22411;53.016;18.632;2024-03-07T07:08:14;24.73;;;12.43;;
36379;SDS011;22411;53.016;18.632;2024-03-07T07:10:39;24.70;;;12.30;;
36379;SDS011;22411;53.016;18.632;2024-03-07T07:13:06;22.70;;;12.13;;
36379;SDS011;22411;53.016;18.632;2024-03-07T07:15:32;24.13;;;12.70;;
36379;SDS011;22411;53.016;18.632;2024-03-07T07:17:58;23.97;;;12.20;;
36379;SDS011;22411;53.016;18.632;2024-03-07T07:20:24;27.03;;;12.10;;
36379;SDS011;22411;53.016;18.632;2024-03-07T07:22:50;20.93;;;12.03;;
36379;SDS011;22411;53.016;18.632;2024-03-07T07:25:18;23.63;;;12.70;;
36379;SDS011;22411;53.016;18.632;2024-03-07T07:27:46;21.50;;;10.97;;
36379;SDS011;22411;53.016;18.632;2024-03-07T07:30:17;21.87;;;12.27;;
36379;SDS011;22411;53.016;18.632;2024-03-07T07:32:44;21.08;;;11.75;;
36379;SDS011;22411;53.016;18.632;2024-03-07T07:35:11;24.37;;;11.87;;
36379;SDS011;22411;53.016;18.632;2024-03-07T07:37:41;22.03;;;11.13;;
36379;SDS011;22411;53.016;18.632;2024-03-07T07:40:09;20.48;;;11.85;;
36379;SDS011;22411;53.016;18.632;2024-03-07T07:45:10;20.73;;;12.17;;
36379;SDS011;22411;53.016;18.632;2024-03-07T07:50:10;19.03;;;10.37;;
36379;SDS011;22411;53.016;18.632;2024-03-07T07:52:40;23.23;;;11.97;;
36379;SDS011;22411;53.016;18.632;2024-03-07T07:55:07;19.93;;;10.00;;
36379;SDS011;22411;53.016;18.632;2024-03-07T07:57:40;18.87;;;10.93;;
36379;SDS011;22411;53.016;18.632;2024-03-07T08:00:13;20.42;;;10.77;;
36379;SDS011;22411;53.016;18.632;2024-03-07T08:02:58;19.93;;;9.73;;
36379;SDS011;22411;53.016;18.632;2024-03-07T08:05:26;22.23;;;10.97;;
36379;SDS011;22411;53.016;18.632;2024-03-07T08:10:24;20.83;;;9.90;;
36379;SDS011;22411;53.016;18.632;2024-03-07T08:12:54;17.80;;;10.03;;
36379;SDS011;22411;53.016;18.632;2024-03-07T08:15:20;14.43;;;8.88;;
36379;SDS011;22411;53.016;18.632;2024-03-07T08:17:47;16.70;;;8.73;;
36379;SDS011;22411;53.016;18.632;2024-03-07T08:20:14;21.10;;;10.45;;
36379;SDS011;22411;53.016;18.632;2024-03-07T08:22:46;16.02;;;9.60;;
36379;SDS011;22411;53.016;18.632;2024-03-07T08:25:15;20.15;;;9.77;;
36379;SDS011;22411;53.016;18.632;2024-03-07T08:27:42;18.30;;;9.95;;
36379;SDS011;22411;53.016;18.632;2024-03-07T08:30:09;16.13;;;9.25;;
36379;SDS011;22411;53.016;18.632;2024-03-07T08:32:40;18.70;;;8.82;;
36379;SDS011;22411;53.016;18.632;2024-03-07T08:35:06;17.13;;;9.50;;
36379;SDS011;22411;53.016;18.632;2024-03-07T08:37:38;18.90;;;9.48;;
36379;SDS011;22411;53.016;18.632;2024-03-07T08:40:05;17.70;;;9.70;;
36379;SDS011;22411;53.016;18.632;2024-03-07T08:42:33;16.20;;;9.40;;
36379;SDS011;22411;53.016;18.632;2024-03-07T08:44:59;18.70;;;8.05;;
36379;SDS011;22411;53.016;18.632;2024-03-07T08:47:29;14.90;;;9.75;;
36379;SDS011;22411;53.016;18.632;2024-03-07T08:49:56;17.35;;;9.55;;
36379;SDS011;22411;53.016;18.632;2024-03-07T08:52:23;15.20;;;8.23;;
36379;SDS011;22411;53.016;18.632;2024-03-07T08:54:48;16.10;;;9.07;;
36379;SDS011;22411;53.016;18.632;2024-03-07T08:57:14;18.38;;;10.60;;
36379;SDS011;22411;53.016;18.632;2024-03-07T08:59:42;16.92;;;9.00;;
36379;SDS011;22411;53.016;18.632;2024-03-07T09:02:12;19.15;;;8.73;;
36379;SDS011;22411;53.016;18.632;2024-03-07T09:04:38;16.60;;;9.45;;
36379;SDS011;22411;53.016;18.632;2024-03-07T09:07:04;17.48;;;9.63;;
36379;SDS011;22411;53.016;18.632;2024-03-07T09:09:31;15.88;;;8.48;;
36379;SDS011;22411;53.016;18.632;2024-03-07T09:12:00;15.15;;;8.65;;
36379;SDS011;22411;53.016;18.632;2024-03-07T09:14:30;18.13;;;8.90;;
36379;SDS011;22411;53.016;18.632;2024-03-07T09:16:55;14.52;;;8.30;;
36379;SDS011;22411;53.016;18.632;2024-03-07T09:19:22;13.45;;;8.30;;
36379;SDS011;22411;53.016;18.632;2024-03-07T09:21:52;17.73;;;9.02;;
36379;SDS011;22411;53.016;18.632;2024-03-07T09:24:19;13.73;;;7.47;;
36379;SDS011;22411;53.016;18.632;2024-03-07T09:26:48;12.50;;;7.72;;
36379;SDS011;22411;53.016;18.632;2024-03-07T09:29:17;15.45;;;7.65;;
36379;SDS011;22411;53.016;18.632;2024-03-07T09:31:44;12.77;;;7.55;;
36379;SDS011;22411;53.016;18.632;2024-03-07T09:34:11;13.45;;;8.43;;
36379;SDS011;22411;53.016;18.632;2024-03-07T09:36:38;19.52;;;13.45;;
36379;SDS011;22411;53.016;18.632;2024-03-07T09:39:06;16.05;;;11.90;;
36379;SDS011;22411;53.016;18.632;2024-03-07T09:41:34;15.77;;;8.25;;
36379;SDS011;22411;53.016;18.632;2024-03-07T09:44:02;16.92;;;8.98;;
36379;SDS011;22411;53.016;18.632;2024-03-07T09:46:30;20.27;;;10.50;;
36379;SDS011;22411;53.016;18.632;2024-03-07T09:48:57;17.60;;;9.57;;
36379;SDS011;22411;53.016;18.632;2024-03-07T09:51:24;16.30;;;10.10;;
36379;SDS011;22411;53.016;18.632;2024-03-07T09:53:51;19.83;;;12.02;;
36379;SDS011;22411;53.016;18.632;2024-03-07T09:56:22;19.55;;;12.13;;
36379;SDS011;22411;53.016;18.632;2024-03-07T09:58:50;37.67;;;21.73;;
36379;SDS011;22411;53.016;18.632;2024-03-07T10:01:21;30.97;;;24.90;;
36379;SDS011;22411;53.016;18.632;2024-03-07T10:03:47;22.30;;;18.08;;
36379;SDS011;22411;53.016;18.632;2024-03-07T10:06:14;27.77;;;16.92;;
36379;SDS011;22411;53.016;18.632;2024-03-07T10:08:40;25.98;;;19.17;;
36379;SDS011;22411;53.016;18.632;2024-03-07T10:11:10;24.30;;;15.47;;
36379;SDS011;22411;53.016;18.632;2024-03-07T10:13:35;26.10;;;17.45;;
36379;SDS011;22411;53.016;18.632;2024-03-07T10:16:01;16.67;;;11.88;;
36379;SDS011;22411;53.016;18.632;2024-03-07T10:18:27;16.67;;;11.10;;
36379;SDS011;22411;53.016;18.632;2024-03-07T10:20:53;19.75;;;13.63;;
36379;SDS011;22411;53.016;18.632;2024-03-07T10:23:20;20.92;;;13.32;;
36379;SDS011;22411;53.016;18.632;2024-03-07T10:25:46;24.67;;;18.45;;
36379;SDS011;22411;53.016;18.632;2024-03-07T10:28:12;18.70;;;14.23;;
36379;SDS011;22411;53.016;18.632;2024-03-07T10:30:41;18.33;;;11.23;;
36379;SDS011;22411;53.016;18.632;2024-03-07T10:35:37;17.38;;;14.82;;
36379;SDS011;22411;53.016;18.632;2024-03-07T10:38:02;13.18;;;10.48;;
36379;SDS011;22411;53.016;18.632;2024-03-07T10:40:32;12.70;;;8.15;;
36379;SDS011;22411;53.016;18.632;2024-03-07T10:43:00;12.68;;;8.75;;
36379;SDS011;22411;53.016;18.632;2024-03-07T10:45:37;12.00;;;7.93;;
36379;SDS011;22411;53.016;18.632;2024-03-07T10:48:11;13.93;;;8.45;;
36379;SDS011;22411;53.016;18.632;2024-03-07T10:59:25;11.35;;;6.95;;
36379;SDS011;22411;53.016;18.632;2024-03-07T11:04:46;11.27;;;6.60;;
36379;SDS011;22411;53.016;18.632;2024-03-07T11:07:14;13.30;;;7.47;;
36379;SDS011;22411;53.016;18.632;2024-03-07T11:09:40;20.70;;;10.02;;
36379;SDS011;22411;53.016;18.632;2024-03-07T11:12:07;12.88;;;7.80;;
36379;SDS011;22411;53.016;18.632;2024-03-07T11:14:35;13.15;;;8.10;;
36379;SDS011;22411;53.016;18.632;2024-03-07T11:17:03;15.73;;;8.60;;
36379;SDS011;22411;53.016;18.632;2024-03-07T11:19:31;12.77;;;8.27;;
36379;SDS011;22411;53.016;18.632;2024-03-07T11:22:02;17.13;;;10.57;;
36379;SDS011;22411;53.016;18.632;2024-03-07T11:24:39;12.43;;;8.32;;
36379;SDS011;22411;53.016;18.632;2024-03-07T11:27:05;16.05;;;9.60;;
36379;SDS011;22411;53.016;18.632;2024-03-07T11:32:13;14.05;;;7.95;;
36379;SDS011;22411;53.016;18.632;2024-03-07T11:34:43;10.35;;;7.20;;
36379;SDS011;22411;53.016;18.632;2024-03-07T11:37:58;11.13;;;7.75;;
36379;SDS011;22411;53.016;18.632;2024-03-07T11:42:46;9.30;;;6.85;;
36379;SDS011;22411;53.016;18.632;2024-03-07T11:45:13;10.90;;;6.90;;
36379;SDS011;22411;53.016;18.632;2024-03-07T11:47:53;13.13;;;8.33;;
36379;SDS011;22411;53.016;18.632;2024-03-07T11:50:32;13.40;;;8.40;;
36379;SDS011;22411;53.016;18.632;2024-03-07T11:53:00;10.38;;;7.13;;
36379;SDS011;22411;53.016;18.632;2024-03-07T11:55:27;10.65;;;6.35;;
36379;SDS011;22411;53.016;18.632;2024-03-07T11:58:07;12.00;;;7.57;;
36379;SDS011;22411;53.016;18.632;2024-03-07T12:00:38;9.10;;;6.75;;
36379;SDS011;22411;53.016;18.632;2024-03-07T12:03:08;50.95;;;29.92;;
36379;SDS011;22411;53.016;18.632;2024-03-07T12:05:41;11.07;;;7.30;;
36379;SDS011;22411;53.016;18.632;2024-03-07T12:08:07;14.27;;;7.82;;
36379;SDS011;22411;53.016;18.632;2024-03-07T12:10:35;10.00;;;6.68;;
36379;SDS011;22411;53.016;18.632;2024-03-07T12:13:02;8.48;;;7.55;;
36379;SDS011;22411;53.016;18.632;2024-03-07T12:15:29;18.55;;;15.25;;
36379;SDS011;22411;53.016;18.632;2024-03-07T12:17:56;11.23;;;9.30;;
36379;SDS011;22411;53.016;18.632;2024-03-07T12:20:22;9.48;;;7.10;;
36379;SDS011;22411;53.016;18.632;2024-03-07T12:22:59;24.10;;;20.00;;
36379;SDS011;22411;53.016;18.632;2024-03-07T12:25:32;41.55;;;27.02;;
36379;SDS011;22411;53.016;18.632;2024-03-07T12:28:08;37.83;;;22.35;;
36379;SDS011;22411;53.016;18.632;2024-03-07T12:33:11;15.35;;;11.55;;
36379;SDS011;22411;53.016;18.632;2024-03-07T12:35:42;26.42;;;16.75;;
36379;SDS011;22411;53.016;18.632;2024-03-07T12:38:09;47.28;;;28.20;;
36379;SDS011;22411;53.016;18.632;2024-03-07T12:40:41;67.70;;;35.80;;
36379;SDS011;22411;53.016;18.632;2024-03-07T12:43:14;64.28;;;35.22;;
36379;SDS011;22411;53.016;18.632;2024-03-07T12:45:44;12.70;;;8.93;;
36379;SDS011;22411;53.016;18.632;2024-03-07T12:48:17;11.70;;;10.43;;
36379;SDS011;22411;53.016;18.632;2024-03-07T12:50:51;14.20;;;12.60;;
36379;SDS011;22411;53.016;18.632;2024-03-07T12:53:21;13.27;;;11.77;;
36379;SDS011;22411;53.016;18.632;2024-03-07T12:55:48;6.38;;;5.35;;
36379;SDS011;22411;53.016;18.632;2024-03-07T12:58:14;8.52;;;7.55;;
36379;SDS011;22411;53.016;18.632;2024-03-07T13:00:41;9.27;;;6.07;;
36379;SDS011;22411;53.016;18.632;2024-03-07T13:03:07;9.45;;;5.97;;
36379;SDS011;22411;53.016;18.632;2024-03-07T13:05:39;8.68;;;6.57;;
36379;SDS011;22411;53.016;18.632;2024-03-07T13:08:09;8.63;;;7.70;;
36379;SDS011;22411;53.016;18.632;2024-03-07T13:10:41;8.43;;;6.72;;
36379;SDS011;22411;53.016;18.632;2024-03-07T13:13:08;7.20;;;5.25;;
36379;SDS011;22411;53.016;18.632;2024-03-07T13:15:40;9.52;;;7.20;;
36379;SDS011;22411;53.016;18.632;2024-03-07T13:18:08;8.75;;;6.93;;
36379;SDS011;22411;53.016;18.632;2024-03-07T13:20:37;9.45;;;7.47;;
36379;SDS011;22411;53.016;18.632;2024-03-07T13:23:03;16.13;;;13.68;;
36379;SDS011;22411;53.016;18.632;2024-03-07T13:25:29;15.60;;;12.02;;
36379;SDS011;22411;53.016;18.632;2024-03-07T13:28:01;18.70;;;15.63;;
36379;SDS011;22411;53.016;18.632;2024-03-07T13:30:33;11.50;;;10.18;;
36379;SDS011;22411;53.016;18.632;2024-03-07T13:33:01;9.38;;;7.82;;
36379;SDS011;22411;53.016;18.632;2024-03-07T13:35:28;10.27;;;7.78;;
36379;SDS011;22411;53.016;18.632;2024-03-07T13:37:55;10.18;;;7.45;;
36379;SDS011;22411;53.016;18.632;2024-03-07T13:40:24;60.92;;;37.03;;
36379;SDS011;22411;53.016;18.632;2024-03-07T13:42:55;56.92;;;35.80;;
36379;SDS011;22411;53.016;18.632;2024-03-07T13:47:55;62.70;;;36.78;;
36379;SDS011;22411;53.016;18.632;2024-03-07T13:50:23;15.25;;;10.18;;
36379;SDS011;22411;53.016;18.632;2024-03-07T13:52:51;18.08;;;10.23;;
36379;SDS011;22411;53.016;18.632;2024-03-07T13:55:50;15.57;;;12.55;;
36379;SDS011;22411;53.016;18.632;2024-03-07T13:58:28;11.63;;;7.93;;
36379;SDS011;22411;53.016;18.632;2024-03-07T14:24:45;11.63;;;6.95;;
36379;SDS011;22411;53.016;18.632;2024-03-07T14:27:35;9.13;;;5.95;;
36379;SDS011;22411;53.016;18.632;2024-03-07T14:33:06;9.55;;;6.03;;
36379;SDS011;22411;53.016;18.632;2024-03-07T14:38:54;35.65;;;26.15;;
36379;SDS011;22411;53.016;18.632;2024-03-07T14:41:40;21.38;;;15.88;;
36379;SDS011;22411;53.016;18.632;2024-03-07T14:44:13;25.00;;;15.23;;
36379;SDS011;22411;53.016;18.632;2024-03-07T14:46:40;10.25;;;7.88;;
36379;SDS011;22411;53.016;18.632;2024-03-07T14:49:09;13.50;;;8.35;;
36379;SDS011;22411;53.016;18.632;2024-03-07T14:51:41;15.10;;;10.63;;
36379;SDS011;22411;53.016;18.632;2024-03-07T14:54:07;22.58;;;15.98;;
36379;SDS011;22411;53.016;18.632;2024-03-07T14:56:33;29.08;;;21.55;;
36379;SDS011;22411;53.016;18.632;2024-03-07T14:58:59;17.40;;;11.50;;
36379;SDS011;22411;53.016;18.632;2024-03-07T15:01:28;15.60;;;9.00;;
36379;SDS011;22411;53.016;18.632;2024-03-07T15:03:56;11.02;;;7.13;;
36379;SDS011;22411;53.016;18.632;2024-03-07T15:06:23;14.40;;;9.32;;
36379;SDS011;22411;53.016;18.632;2024-03-07T15:08:49;11.32;;;6.93;;
36379;SDS011;22411;53.016;18.632;2024-03-07T15:11:17;11.50;;;6.55;;
36379;SDS011;22411;53.016;18.632;2024-03-07T15:13:49;14.10;;;8.88;;
36379;SDS011;22411;53.016;18.632;2024-03-07T15:16:15;10.13;;;5.75;;
36379;SDS011;22411;53.016;18.632;2024-03-07T15:18:41;14.40;;;8.85;;
36379;SDS011;22411;53.016;18.632;2024-03-07T15:21:09;9.77;;;7.00;;
36379;SDS011;22411;53.016;18.632;2024-03-07T15:23:35;13.25;;;7.45;;
36379;SDS011;22411;53.016;18.632;2024-03-07T15:26:01;18.13;;;12.45;;